createdAt,value
2018-05-08T00:00:07.666Z,53.83
2018-05-08T00:02:09.091Z,54.22
2018-05-08T00:04:10.517Z,53.92
2018-05-08T00:06:11.942Z,53.74
2018-05-08T00:08:13.365Z,54.50
2018-05-08T00:10:14.795Z,54.02
2018-05-08T00:12:16.231Z,54.79
2018-05-08T00:14:17.658Z,54.79
2018-05-08T00:16:19.084Z,55.18
2018-05-08T00:18:20.509Z,54.89
2018-05-08T00:20:21.936Z,54.57
2018-05-08T00:22:23.365Z,55.15
2018-05-08T00:24:24.789Z,55.15
2018-05-08T00:26:26.215Z,55.53
2018-05-08T00:28:27.643Z,55.63
2018-05-08T00:30:29.080Z,55.44
2018-05-08T00:32:30.492Z,55.63
2018-05-08T00:34:31.915Z,55.73
2018-05-08T00:36:33.337Z,55.82
2018-05-08T00:38:34.762Z,56.01
2018-05-08T00:40:36.190Z,55.91
2018-05-08T00:42:37.600Z,55.53
2018-05-08T00:44:39.048Z,55.91
2018-05-08T00:46:40.475Z,56.11
2018-05-08T00:48:41.913Z,55.60
2018-05-08T00:50:43.332Z,56.46
2018-05-08T00:52:44.753Z,56.37
2018-05-08T00:54:46.164Z,56.56
2018-05-08T00:56:47.603Z,56.46
2018-05-08T00:58:49.022Z,56.18
2018-05-08T01:00:50.450Z,56.76
2018-05-08T01:02:51.877Z,56.95
2018-05-08T01:04:53.406Z,57.04
2018-05-08T01:06:54.786Z,57.04
2018-05-08T01:08:56.238Z,57.23
2018-05-08T01:10:57.737Z,56.85
2018-05-08T01:12:59.226Z,56.95
2018-05-08T01:15:00.716Z,56.44
2018-05-08T01:17:02.199Z,56.66
2018-05-08T01:19:03.669Z,56.56
2018-05-08T01:21:05.111Z,56.85
2018-05-08T01:23:06.560Z,56.95
2018-05-08T01:25:08.107Z,57.01
2018-05-08T01:27:09.653Z,57.21
2018-05-08T01:29:11.112Z,57.59
2018-05-08T01:31:12.600Z,57.68
2018-05-08T01:33:14.068Z,57.88
2018-05-08T01:35:15.557Z,57.78
2018-05-08T01:37:17.171Z,57.88
2018-05-08T01:39:18.634Z,57.97
2018-05-08T01:41:20.251Z,57.68
2018-05-08T01:43:21.819Z,58.45
2018-05-08T01:45:23.300Z,57.68
2018-05-08T01:47:24.826Z,57.50
2018-05-08T01:49:26.295Z,57.21
2018-05-08T01:51:27.796Z,57.88
2018-05-08T01:53:29.282Z,57.30
2018-05-08T01:55:30.789Z,55.96
2018-05-08T01:57:32.228Z,55.57
2018-05-08T01:59:33.700Z,57.30
2018-05-08T02:01:35.307Z,56.92
2018-05-08T02:03:36.852Z,56.53
2018-05-08T02:05:38.300Z,56.15
2018-05-08T02:07:39.793Z,55.19
2018-05-08T02:09:41.297Z,55.86
2018-05-08T02:11:42.797Z,55.47
2018-05-08T02:13:44.247Z,55.57
2018-05-08T02:15:45.755Z,55.38
2018-05-08T02:17:47.225Z,55.47
2018-05-08T02:19:48.719Z,55.38
2018-05-08T02:21:50.161Z,55.57
2018-05-08T02:23:51.656Z,55.10
2018-05-08T02:25:53.175Z,55.67
2018-05-08T02:27:54.553Z,54.61
2018-05-08T02:29:55.977Z,55.38
2018-05-08T02:31:57.422Z,55.86
2018-05-08T02:33:58.852Z,54.61
2018-05-08T02:36:00.267Z,54.90
2018-05-08T02:38:01.687Z,54.80
2018-05-08T02:40:03.125Z,54.80
2018-05-08T02:42:04.548Z,55.67
2018-05-08T02:44:05.971Z,55.86
2018-05-08T02:46:07.393Z,55.35
2018-05-08T02:48:08.853Z,55.93
2018-05-08T02:50:10.308Z,55.93
2018-05-08T02:52:11.727Z,55.26
2018-05-08T02:54:13.196Z,55.29
2018-05-08T02:56:14.689Z,55.45
2018-05-08T02:58:16.217Z,55.67
2018-05-08T03:00:17.715Z,55.77
2018-05-08T03:02:19.219Z,55.29
2018-05-08T03:04:20.639Z,55.67
2018-05-08T03:06:22.066Z,55.93
2018-05-08T03:08:23.519Z,55.93
2018-05-08T03:10:24.987Z,56.51
2018-05-08T03:12:26.433Z,56.51
2018-05-08T03:14:27.922Z,56.41
2018-05-08T03:16:29.627Z,55.93
2018-05-08T03:18:31.259Z,56.41
2018-05-08T03:20:32.963Z,56.31
2018-05-08T03:22:34.687Z,56.02
2018-05-08T03:24:36.338Z,55.74
2018-05-08T03:26:37.996Z,55.35
2018-05-08T03:28:39.652Z,55.35
2018-05-08T03:30:41.155Z,55.74
2018-05-08T03:32:42.716Z,56.41
2018-05-08T03:34:44.124Z,55.93
2018-05-08T03:36:45.624Z,56.41
2018-05-08T03:38:47.168Z,55.93
2018-05-08T03:40:48.710Z,55.93
2018-05-08T03:42:50.246Z,55.83
2018-05-08T03:44:51.885Z,56.60
2018-05-08T03:46:53.368Z,55.55
2018-05-08T03:48:54.849Z,55.35
2018-05-08T03:50:56.394Z,56.51
2018-05-08T03:52:57.834Z,57.08
2018-05-08T03:54:59.273Z,56.02
2018-05-08T03:57:00.884Z,55.35
2018-05-08T03:59:02.339Z,56.02
2018-05-08T04:01:03.825Z,55.74
2018-05-08T04:03:05.271Z,55.83
2018-05-08T04:05:06.857Z,56.22
2018-05-08T04:07:08.357Z,57.37
2018-05-08T04:09:09.865Z,56.86
2018-05-08T04:11:11.385Z,57.92
2018-05-08T04:13:12.809Z,58.01
2018-05-08T04:15:14.247Z,57.72
2018-05-08T04:17:15.712Z,57.06
2018-05-08T04:19:17.164Z,58.23
2018-05-08T04:21:18.684Z,57.15
2018-05-08T04:23:20.192Z,57.24
2018-05-08T04:25:21.679Z,57.24
2018-05-08T04:27:23.137Z,57.53
2018-05-08T04:29:24.758Z,57.43
2018-05-08T04:31:26.361Z,56.86
2018-05-08T04:33:27.970Z,56.57
2018-05-08T04:35:29.618Z,57.37
2018-05-08T04:37:31.065Z,57.72
2018-05-08T04:39:32.515Z,57.37
2018-05-08T04:41:33.944Z,56.98
2018-05-08T04:43:35.363Z,56.51
2018-05-08T04:45:36.789Z,56.89
2018-05-08T04:47:38.215Z,56.31
2018-05-08T04:49:39.637Z,56.79
2018-05-08T04:51:41.063Z,57.75
2018-05-08T04:53:42.493Z,57.75
2018-05-08T04:55:43.919Z,56.79
2018-05-08T04:57:45.340Z,57.46
2018-05-08T04:59:46.764Z,57.65
2018-05-08T05:01:48.199Z,57.56
2018-05-08T05:03:49.629Z,58.62
2018-05-08T05:05:51.050Z,57.65
2018-05-08T05:07:52.495Z,57.65
2018-05-08T05:09:53.906Z,57.75
2018-05-08T05:11:55.339Z,57.28
2018-05-08T05:13:56.760Z,57.28
2018-05-08T05:15:58.185Z,57.75
2018-05-08T05:17:59.619Z,58.42
2018-05-08T05:20:01.039Z,57.18
2018-05-08T05:22:02.470Z,58.81
2018-05-08T05:24:03.925Z,59.29
2018-05-08T05:26:05.345Z,57.65
2018-05-08T05:28:06.770Z,57.56
2018-05-08T05:30:08.200Z,58.42
2018-05-08T05:32:09.771Z,58.84
2018-05-08T05:34:11.201Z,58.91
2018-05-08T05:36:53.664Z,58.74
2018-05-08T05:38:55.285Z,57.11
2018-05-08T05:40:56.963Z,56.34
2018-05-08T05:42:58.384Z,55.99
2018-05-08T05:44:59.814Z,55.69
2018-05-08T05:47:01.391Z,54.96
2018-05-08T05:49:03.125Z,54.89
2018-05-08T05:51:04.643Z,52.99
2018-05-08T05:53:06.072Z,52.54
2018-05-08T05:55:07.568Z,51.86
2018-05-08T05:57:49.294Z,50.23
2018-05-08T05:59:50.722Z,49.77
2018-05-08T06:01:52.153Z,49.96
2018-05-08T06:03:53.581Z,50.32
2018-05-08T06:05:55.012Z,50.13
2018-05-08T06:07:56.446Z,51.55
2018-05-08T06:09:57.885Z,51.35
2018-05-08T06:11:59.362Z,51.38
2018-05-08T06:14:00.762Z,50.93
2018-05-08T06:16:43.185Z,49.70
2018-05-08T06:18:44.632Z,47.72
2018-05-08T06:20:46.055Z,43.68
2018-05-08T06:22:47.491Z,39.03
2018-05-08T06:24:48.927Z,35.64
2018-05-08T06:26:50.364Z,31.53
2018-05-08T06:28:51.899Z,29.24
2018-05-08T06:30:53.330Z,28.45
2018-05-08T06:32:54.771Z,27.62
2018-05-08T06:34:56.211Z,26.76
2018-05-08T06:36:57.763Z,26.74
2018-05-08T06:38:59.222Z,26.20
2018-05-08T06:41:00.728Z,25.16
2018-05-08T06:43:02.205Z,23.22
2018-05-08T06:45:03.652Z,22.16
2018-05-08T06:47:05.106Z,21.58
2018-05-08T06:49:06.548Z,21.78
2018-05-08T06:51:07.994Z,21.09
2018-05-08T06:53:09.440Z,22.16
2018-05-08T06:55:10.916Z,22.81
2018-05-08T06:57:12.362Z,24.58
2018-05-08T06:59:13.812Z,24.77
2018-05-08T07:01:15.260Z,23.80
2018-05-08T07:03:16.711Z,23.11
2018-05-08T07:05:18.148Z,23.66
2018-05-08T07:07:19.607Z,25.85
2018-05-08T07:09:21.052Z,28.72
2018-05-08T07:11:22.488Z,30.74
2018-05-08T07:13:23.937Z,30.93
2018-05-08T07:15:25.375Z,30.85
2018-05-08T07:17:26.861Z,30.90
2018-05-08T07:19:28.307Z,29.63
2018-05-08T07:21:29.740Z,28.83
2018-05-08T07:23:31.193Z,30.75
2018-05-08T07:25:32.625Z,32.47
2018-05-08T07:27:34.270Z,33.23
2018-05-08T07:29:35.890Z,34.56
2018-05-08T07:31:37.401Z,36.29
2018-05-08T07:33:38.956Z,36.56
2018-05-08T07:35:40.661Z,37.13
2018-05-08T07:37:42.102Z,38.06
2018-05-08T07:39:43.577Z,39.41
2018-05-08T07:41:45.114Z,40.56
2018-05-08T07:43:46.560Z,41.21
2018-05-08T07:45:48.264Z,41.67
2018-05-08T07:47:49.696Z,41.75
2018-05-08T07:49:51.149Z,42.72
2018-05-08T07:51:52.940Z,43.68
2018-05-08T07:53:54.617Z,44.63
2018-05-08T07:55:56.294Z,45.01
2018-05-08T07:57:57.764Z,44.24
2018-05-08T07:59:59.203Z,46.37
2018-05-08T08:02:00.920Z,49.75
2018-05-08T08:04:02.371Z,47.72
2018-05-08T08:06:03.796Z,45.69
2018-05-08T08:08:05.294Z,45.59
2018-05-08T08:10:06.962Z,46.95
2018-05-08T08:12:08.643Z,45.01
2018-05-08T08:14:10.384Z,45.72
2018-05-08T08:16:11.823Z,44.75
2018-05-08T08:18:13.265Z,43.68
2018-05-08T08:20:14.779Z,43.88
2018-05-08T08:22:16.280Z,44.36
2018-05-08T08:24:17.786Z,43.10
2018-05-08T08:26:19.455Z,42.33
2018-05-08T08:28:21.308Z,42.07
2018-05-08T08:30:22.731Z,42.55
2018-05-08T08:32:24.166Z,43.13
2018-05-08T08:34:25.699Z,42.57
2018-05-08T08:36:27.471Z,41.99
2018-05-08T08:38:28.877Z,42.10
2018-05-08T08:40:30.341Z,40.07
2018-05-08T08:42:32.109Z,40.84
2018-05-08T08:44:33.876Z,41.74
2018-05-08T08:46:35.708Z,41.35
2018-05-08T08:48:37.750Z,39.80
2018-05-08T08:50:39.585Z,39.22
2018-05-08T08:52:41.413Z,39.32
2018-05-08T08:54:43.206Z,39.92
2018-05-08T08:56:45.085Z,40.59
2018-05-08T08:59:31.344Z,39.06
2018-05-08T09:01:32.749Z,38.78
2018-05-08T09:03:34.339Z,37.32
2018-05-08T09:05:36.040Z,37.81
2018-05-08T09:07:37.876Z,37.63
2018-05-08T09:09:39.801Z,39.95
2018-05-08T09:11:41.411Z,37.92
2018-05-08T09:13:43.313Z,39.39
2018-05-08T09:15:45.012Z,37.55
2018-05-08T09:18:26.827Z,36.97
2018-05-08T09:20:29.308Z,36.58
2018-05-08T09:22:31.128Z,35.53
2018-05-08T09:24:32.727Z,36.21
2018-05-08T09:26:34.439Z,37.10
2018-05-08T09:28:36.173Z,36.22
2018-05-08T09:30:37.942Z,35.16
2018-05-08T09:32:39.646Z,34.87
2018-05-08T09:34:41.378Z,34.97
2018-05-08T09:36:43.156Z,36.34
2018-05-08T09:39:26.148Z,35.37
2018-05-08T09:41:28.550Z,33.62
2018-05-08T09:43:30.024Z,36.36
2018-05-08T09:45:31.722Z,34.42
2018-05-08T09:47:33.578Z,32.76
2018-05-08T09:49:35.488Z,33.34
2018-05-08T09:51:37.360Z,33.93
2018-05-08T09:53:39.314Z,33.44
2018-05-08T09:55:41.194Z,34.82
2018-05-08T09:57:43.000Z,32.37
2018-05-08T09:59:45.029Z,32.20
2018-05-08T10:01:46.769Z,33.95
2018-05-08T10:03:48.650Z,34.06
2018-05-08T10:05:50.560Z,31.04
2018-05-08T10:07:52.468Z,30.93
2018-05-08T10:09:54.364Z,30.05
2018-05-08T10:11:56.170Z,30.44
2018-05-08T10:13:58.021Z,29.88
2018-05-08T10:15:59.821Z,30.07
2018-05-08T10:18:01.468Z,30.05
2018-05-08T10:20:03.113Z,30.17
2018-05-08T10:22:04.719Z,30.26
2018-05-08T10:24:06.510Z,29.86
2018-05-08T10:26:08.237Z,30.07
2018-05-08T10:28:10.048Z,29.99
2018-05-08T10:30:11.949Z,29.68
2018-05-08T10:32:13.767Z,27.05
2018-05-08T10:34:15.287Z,30.77
2018-05-08T10:36:16.856Z,30.08
2018-05-08T10:38:18.411Z,27.26
2018-05-08T10:40:19.966Z,29.79
2018-05-08T10:42:21.575Z,28.43
2018-05-08T10:44:23.147Z,28.83
2018-05-08T10:46:24.695Z,26.29
2018-05-08T10:48:26.264Z,26.89
2018-05-08T10:50:27.994Z,28.64
2018-05-08T10:52:29.861Z,27.56
2018-05-08T10:54:31.522Z,27.08
2018-05-08T10:56:33.117Z,27.76
2018-05-08T10:59:15.803Z,26.89
2018-05-08T11:01:17.262Z,26.19
2018-05-08T11:03:19.382Z,26.78
2018-05-08T11:05:20.894Z,26.39
2018-05-08T11:07:22.614Z,26.30
2018-05-08T11:09:24.489Z,23.18
2018-05-08T11:11:26.415Z,23.77
2018-05-08T11:13:28.000Z,24.16
2018-05-08T11:15:29.771Z,24.35
2018-05-08T11:17:31.340Z,25.03
2018-05-08T11:19:33.231Z,26.01
2018-05-08T11:21:35.185Z,26.01
2018-05-08T11:23:37.858Z,27.47
2018-05-08T11:25:39.508Z,25.03
2018-05-08T11:27:48.084Z,24.56
2018-05-08T11:29:50.405Z,23.10
2018-05-08T11:31:52.042Z,22.31
2018-05-08T11:33:53.953Z,24.37
2018-05-08T11:35:55.782Z,22.61
2018-05-08T11:37:57.427Z,22.02
2018-05-08T11:39:58.878Z,21.62
2018-05-08T11:42:00.326Z,21.25
2018-05-08T11:44:01.769Z,19.78
2018-05-08T11:46:03.213Z,22.41
2018-05-08T11:48:04.655Z,23.19
2018-05-08T11:50:06.133Z,20.94
2018-05-08T11:52:07.543Z,20.65
2018-05-08T11:54:09.057Z,20.84
2018-05-08T11:56:10.520Z,22.41
2018-05-08T11:58:12.003Z,20.75
2018-05-08T12:00:13.464Z,20.86
2018-05-08T12:02:14.909Z,20.57
2018-05-08T12:04:16.353Z,18.80
2018-05-08T12:06:17.794Z,19.78
2018-05-08T12:08:19.260Z,21.73
2018-05-08T12:10:20.738Z,20.66
2018-05-08T12:12:22.188Z,20.66
2018-05-08T12:14:23.669Z,21.64
2018-05-08T12:16:25.126Z,22.22
2018-05-08T12:18:26.563Z,22.91
2018-05-08T12:20:28.009Z,21.74
2018-05-08T12:22:29.455Z,22.72
2018-05-08T12:24:30.895Z,19.78
2018-05-08T12:26:32.339Z,19.99
2018-05-08T12:28:33.782Z,19.89
2018-05-08T12:30:35.283Z,19.79
2018-05-08T12:32:36.800Z,20.37
2018-05-08T12:34:38.246Z,19.78
2018-05-08T12:36:39.690Z,20.76
2018-05-08T12:38:41.130Z,21.84
2018-05-08T12:40:42.626Z,23.50
2018-05-08T12:42:44.087Z,22.13
2018-05-08T12:44:45.516Z,20.67
2018-05-08T12:46:46.984Z,22.22
2018-05-08T12:48:48.462Z,22.62
2018-05-08T12:50:50.268Z,22.42
2018-05-08T12:52:51.740Z,21.94
2018-05-08T12:54:53.244Z,19.39
2018-05-08T12:56:54.913Z,20.95
2018-05-08T12:58:56.729Z,20.86
2018-05-08T13:00:58.069Z,21.06
2018-05-08T13:02:59.519Z,21.94
2018-05-08T13:05:00.967Z,19.99
2018-05-08T13:07:02.410Z,21.34
2018-05-08T13:09:03.869Z,20.77
2018-05-08T13:11:05.342Z,21.94
2018-05-08T13:13:06.703Z,21.73
2018-05-08T13:15:08.181Z,20.96
2018-05-08T13:17:09.613Z,23.21
2018-05-08T13:19:11.072Z,21.64
2018-05-08T13:21:12.640Z,22.13
2018-05-08T13:23:14.202Z,21.94
2018-05-08T13:25:15.793Z,19.89
2018-05-08T13:27:17.354Z,18.13
2018-05-08T13:29:18.963Z,18.91
2018-05-08T13:31:20.538Z,19.99
2018-05-08T13:33:22.119Z,18.42
2018-05-08T13:35:23.660Z,18.80
2018-05-08T13:37:25.174Z,19.68
2018-05-08T13:39:27.061Z,20.86
2018-05-08T13:41:28.683Z,19.68
2018-05-08T13:43:30.129Z,19.39
2018-05-08T13:45:31.633Z,19.31
2018-05-08T13:47:33.071Z,18.72
2018-05-08T13:49:34.542Z,19.21
2018-05-08T13:51:35.991Z,17.83
2018-05-08T13:53:37.589Z,18.52
2018-05-08T13:55:39.293Z,19.21
2018-05-08T13:57:40.814Z,19.78
2018-05-08T13:59:42.409Z,21.55
2018-05-08T14:01:44.046Z,20.86
2018-05-08T14:03:45.584Z,21.74
2018-05-08T14:05:47.186Z,21.74
2018-05-08T14:07:48.716Z,19.99
2018-05-08T14:09:50.334Z,20.48
2018-05-08T14:11:51.911Z,19.98
2018-05-08T14:13:53.496Z,19.88
2018-05-08T14:15:55.037Z,21.34
2018-05-08T14:17:56.638Z,20.95
2018-05-08T14:19:58.220Z,21.54
2018-05-08T14:21:59.807Z,21.34
2018-05-08T14:24:01.364Z,22.41
2018-05-08T14:26:02.917Z,21.35
2018-05-08T14:28:04.506Z,23.89
2018-05-08T14:30:06.066Z,21.15
2018-05-08T14:32:07.636Z,21.54
2018-05-08T14:34:09.200Z,22.51
2018-05-08T14:36:10.744Z,23.50
2018-05-08T14:38:12.300Z,22.52
2018-05-08T14:40:13.850Z,22.03
2018-05-08T14:42:15.425Z,21.92
2018-05-08T14:44:16.941Z,22.61
2018-05-08T14:46:18.507Z,22.31
2018-05-08T14:48:20.063Z,21.44
2018-05-08T14:50:21.582Z,22.51
2018-05-08T14:52:23.143Z,23.58
2018-05-08T14:54:24.664Z,23.19
2018-05-08T14:56:26.185Z,23.58
2018-05-08T14:58:27.721Z,23.49
2018-05-08T15:01:10.153Z,23.88
2018-05-08T15:03:11.606Z,24.07
2018-05-08T15:05:13.057Z,24.37
2018-05-08T15:07:14.506Z,23.39
2018-05-08T15:09:15.945Z,23.30
2018-05-08T15:11:17.398Z,23.21
2018-05-08T15:13:19.041Z,23.29
2018-05-08T15:15:20.805Z,23.78
2018-05-08T15:17:22.392Z,23.29
2018-05-08T15:19:23.932Z,23.39
2018-05-08T15:21:25.552Z,24.76
2018-05-08T15:23:27.387Z,23.58
2018-05-08T15:25:28.924Z,24.56
2018-05-08T15:27:30.504Z,24.66
2018-05-08T15:29:32.190Z,24.17
2018-05-08T15:31:34.109Z,25.92
2018-05-08T15:33:35.721Z,24.85
2018-05-08T15:35:37.354Z,25.63
2018-05-08T15:37:38.954Z,25.04
2018-05-08T15:39:40.525Z,24.96
2018-05-08T15:41:42.083Z,24.17
2018-05-08T15:43:43.976Z,24.27
2018-05-08T15:45:45.658Z,25.14
2018-05-08T15:47:47.258Z,24.26
2018-05-08T15:49:48.938Z,24.55
2018-05-08T15:51:50.529Z,26.20
2018-05-08T15:53:52.457Z,25.71
2018-05-08T15:55:54.021Z,25.53
2018-05-08T15:57:55.796Z,25.03
2018-05-08T16:00:39.140Z,25.13
2018-05-08T16:02:40.692Z,24.55
2018-05-08T16:04:42.635Z,24.35
2018-05-08T16:06:44.252Z,25.12
2018-05-08T16:08:45.718Z,24.63
2018-05-08T16:10:47.381Z,24.34
2018-05-08T16:12:49.176Z,24.24
2018-05-08T16:14:51.133Z,24.73
2018-05-08T16:16:52.779Z,23.66
2018-05-08T16:18:54.371Z,24.54
2018-05-08T16:21:36.008Z,24.05
2018-05-08T16:23:38.060Z,24.24
2018-05-08T16:25:39.567Z,24.24
2018-05-08T16:27:41.269Z,23.84
2018-05-08T16:29:42.698Z,24.54
2018-05-08T16:31:44.370Z,24.63
2018-05-08T16:33:46.052Z,24.24
2018-05-08T16:35:47.984Z,25.59
2018-05-08T16:37:49.440Z,24.04
2018-05-08T16:39:51.109Z,24.13
2018-05-08T16:41:53.011Z,24.43
2018-05-08T16:43:54.699Z,24.52
2018-05-08T16:45:56.234Z,24.62
2018-05-08T16:47:57.950Z,24.82
2018-05-08T16:50:00.012Z,24.52
2018-05-08T16:52:01.705Z,25.40
2018-05-08T16:54:03.261Z,24.43
2018-05-08T16:56:05.192Z,24.99
2018-05-08T16:58:06.741Z,25.09
2018-05-08T17:00:08.286Z,25.09
2018-05-08T17:02:09.808Z,25.29
2018-05-08T17:04:11.371Z,25.09
2018-05-08T17:06:13.040Z,25.09
2018-05-08T17:08:14.554Z,25.68
2018-05-08T17:10:16.354Z,25.97
2018-05-08T17:12:18.179Z,25.48
2018-05-08T17:14:19.817Z,26.75
2018-05-08T17:16:21.680Z,24.60
2018-05-08T17:18:23.259Z,24.79
2018-05-08T17:20:24.750Z,26.44
2018-05-08T17:22:26.304Z,27.12
2018-05-08T17:24:27.840Z,25.96
2018-05-08T17:26:29.464Z,26.25
2018-05-08T17:28:31.658Z,25.96
2018-05-08T17:30:33.814Z,25.37
2018-05-08T17:32:36.068Z,26.54
2018-05-08T17:34:37.729Z,24.98
2018-05-08T17:36:39.632Z,25.07
2018-05-08T17:38:41.847Z,24.79
2018-05-08T17:41:24.395Z,25.76
2018-05-08T17:43:26.475Z,24.68
2018-05-08T17:45:29.354Z,24.39
2018-05-08T17:47:31.756Z,24.97
2018-05-08T17:49:33.950Z,25.46
2018-05-08T17:51:35.655Z,25.56
2018-05-08T17:53:38.134Z,27.21
2018-05-08T17:55:39.856Z,25.75
2018-05-08T17:57:41.434Z,26.14
2018-05-08T17:59:43.539Z,26.14
2018-05-08T18:01:45.271Z,26.14
2018-05-08T18:03:47.181Z,27.31
2018-05-08T18:05:48.999Z,26.14
2018-05-08T18:07:50.853Z,26.82
2018-05-08T18:09:52.941Z,26.53
2018-05-08T18:11:54.783Z,27.79
2018-05-08T18:13:56.485Z,28.07
2018-05-08T18:15:58.021Z,26.81
2018-05-08T18:17:59.848Z,26.61
2018-05-08T18:20:01.425Z,27.00
2018-05-08T18:22:03.050Z,27.39
2018-05-08T18:24:05.002Z,28.45
2018-05-08T18:26:07.169Z,27.10
2018-05-08T18:28:09.457Z,27.47
2018-05-08T18:30:11.020Z,27.67
2018-05-08T18:32:12.991Z,28.64
2018-05-08T18:34:15.091Z,28.34
2018-05-08T18:36:16.886Z,28.74
2018-05-08T18:38:18.727Z,28.44
2018-05-08T18:40:20.396Z,29.69
2018-05-08T18:43:03.223Z,30.37
2018-05-08T18:45:04.727Z,29.88
2018-05-08T18:47:06.177Z,29.60
2018-05-08T18:49:08.448Z,30.08
2018-05-08T18:51:10.617Z,29.98
2018-05-08T18:53:12.229Z,30.37
2018-05-08T18:55:13.987Z,31.92
2018-05-08T18:57:15.712Z,30.94
2018-05-08T18:59:18.146Z,31.23
2018-05-08T19:02:03.293Z,30.45
2018-05-08T19:04:05.066Z,31.23
2018-05-08T19:06:08.873Z,31.50
2018-05-08T19:08:11.022Z,32.09
2018-05-08T19:10:13.489Z,32.09
2018-05-08T19:12:15.029Z,32.86
2018-05-08T19:14:17.620Z,32.09
2018-05-08T19:16:19.474Z,32.75
2018-05-08T19:18:21.922Z,32.67
2018-05-08T19:20:23.728Z,33.62
2018-05-08T19:23:07.801Z,33.23
2018-05-08T19:25:10.692Z,32.75
2018-05-08T19:27:12.052Z,34.97
2018-05-08T19:29:13.798Z,32.15
2018-05-08T19:31:15.202Z,34.28
2018-05-08T19:33:16.634Z,33.70
2018-05-08T19:35:18.064Z,34.28
2018-05-08T19:37:19.522Z,34.28
2018-05-08T19:39:20.960Z,34.38
2018-05-08T19:41:22.433Z,34.38
2018-05-08T19:43:23.873Z,33.70
2018-05-08T19:45:25.307Z,36.22
2018-05-08T19:47:26.762Z,35.23
2018-05-08T19:49:28.199Z,35.42
2018-05-08T19:51:29.632Z,36.20
2018-05-08T19:53:31.070Z,34.94
2018-05-08T19:55:32.505Z,35.81
2018-05-08T19:57:33.937Z,36.20
2018-05-08T19:59:35.370Z,36.49
2018-05-08T20:01:36.801Z,36.40
2018-05-08T20:03:38.234Z,36.10
2018-05-08T20:05:39.663Z,36.66
2018-05-08T20:07:41.102Z,35.70
2018-05-08T20:09:42.532Z,36.47
2018-05-08T20:11:43.966Z,36.57
2018-05-08T20:13:45.455Z,37.34
2018-05-08T20:15:46.972Z,36.08
2018-05-08T20:17:48.378Z,37.05
2018-05-08T20:19:49.811Z,36.28
2018-05-08T20:21:51.250Z,36.74
2018-05-08T20:23:52.685Z,36.47
2018-05-08T20:25:54.119Z,36.94
2018-05-08T20:27:55.553Z,37.42
2018-05-08T20:29:56.985Z,37.90
2018-05-08T20:31:58.419Z,37.71
2018-05-08T20:33:59.870Z,38.00
2018-05-08T20:36:01.713Z,38.68
2018-05-08T20:38:03.445Z,38.68
2018-05-08T20:40:04.878Z,38.97
2018-05-08T20:42:06.326Z,39.84
2018-05-08T20:44:07.778Z,39.53
2018-05-08T20:46:09.258Z,39.04
2018-05-08T20:48:10.687Z,39.53
2018-05-08T20:50:12.169Z,40.20
2018-05-08T20:52:13.553Z,40.59
2018-05-08T20:54:14.982Z,40.40
2018-05-08T20:56:16.424Z,40.38
2018-05-08T20:58:17.853Z,39.51
2018-05-08T21:00:19.293Z,41.15
2018-05-08T21:02:20.727Z,40.96
2018-05-08T21:04:22.158Z,39.51
2018-05-08T21:06:23.587Z,40.47
2018-05-08T21:08:25.028Z,40.40
2018-05-08T21:10:26.456Z,40.96
2018-05-08T21:12:27.988Z,40.19
2018-05-08T21:14:29.433Z,41.15
2018-05-08T21:16:30.857Z,39.80
2018-05-08T21:18:32.284Z,40.28
2018-05-08T21:20:33.775Z,40.57
2018-05-08T21:22:35.205Z,40.28
2018-05-08T21:24:36.639Z,40.96
2018-05-08T21:26:38.069Z,39.32
2018-05-08T21:28:39.501Z,40.57
2018-05-08T21:30:41.044Z,41.05
2018-05-08T21:32:42.367Z,40.26
2018-05-08T21:34:43.810Z,41.13
2018-05-08T21:36:45.244Z,40.36
2018-05-08T21:38:46.683Z,39.49
2018-05-08T21:40:48.123Z,40.07
2018-05-08T21:42:49.574Z,41.03
2018-05-08T21:44:51.078Z,39.11
2018-05-08T21:46:52.642Z,39.32
2018-05-08T21:48:54.179Z,40.45
2018-05-08T21:50:55.722Z,39.49
2018-05-08T21:52:57.288Z,40.36
2018-05-08T21:54:58.777Z,40.84
2018-05-08T21:57:00.368Z,39.39
2018-05-08T21:59:02.101Z,39.87
2018-05-08T22:01:03.560Z,40.36
2018-05-08T22:03:05.074Z,40.45
2018-05-08T22:05:06.573Z,40.17
2018-05-08T22:07:08.097Z,39.87
2018-05-08T22:09:09.624Z,39.78
2018-05-08T22:11:11.040Z,40.45
2018-05-08T22:13:12.587Z,39.39
2018-05-08T22:15:14.091Z,40.55
2018-05-08T22:17:15.724Z,40.36
2018-05-08T22:19:17.390Z,41.98
2018-05-08T22:21:19.041Z,41.98
2018-05-08T22:23:20.917Z,41.11
2018-05-08T22:25:22.424Z,41.50
2018-05-08T22:27:23.953Z,41.11
2018-05-08T22:29:25.454Z,40.53
2018-05-08T22:31:26.997Z,41.20
2018-05-08T22:33:28.527Z,41.98
2018-05-08T22:35:30.009Z,41.88
2018-05-08T22:37:31.558Z,41.40
2018-05-08T22:39:33.008Z,42.54
2018-05-08T22:41:34.650Z,42.85
2018-05-08T22:43:36.181Z,41.50
2018-05-08T22:45:37.652Z,42.35
2018-05-08T22:47:39.290Z,42.08
2018-05-08T22:49:40.799Z,42.35
2018-05-08T22:51:42.343Z,42.83
2018-05-08T22:53:43.785Z,43.12
2018-05-08T22:55:45.212Z,42.73
2018-05-08T22:57:46.700Z,42.54
2018-05-08T22:59:48.138Z,43.60
2018-05-08T23:01:49.585Z,43.02
2018-05-08T23:03:51.055Z,43.70
2018-05-08T23:05:52.597Z,43.67
2018-05-08T23:07:54.162Z,43.96
2018-05-08T23:09:55.615Z,43.10
2018-05-08T23:11:57.140Z,44.45
2018-05-08T23:13:58.652Z,43.48
2018-05-08T23:16:00.090Z,43.96
2018-05-08T23:18:01.525Z,44.93
2018-05-08T23:20:02.951Z,44.64
2018-05-08T23:22:04.380Z,44.06
2018-05-08T23:24:05.808Z,45.12
2018-05-08T23:26:07.242Z,43.96
2018-05-08T23:28:08.704Z,44.54
2018-05-08T23:30:10.117Z,44.64
2018-05-08T23:32:11.609Z,45.31
2018-05-08T23:34:13.123Z,44.62
2018-05-08T23:36:14.673Z,44.90
2018-05-08T23:38:16.177Z,44.71
2018-05-08T23:40:17.643Z,44.90
2018-05-08T23:42:19.072Z,44.71
2018-05-08T23:44:20.511Z,44.52
2018-05-08T23:46:21.946Z,45.20
2018-05-08T23:48:23.374Z,45.29
2018-05-08T23:50:24.806Z,45.48
2018-05-08T23:52:26.254Z,44.90
2018-05-08T23:54:27.776Z,44.90
2018-05-08T23:56:29.384Z,46.45
2018-05-08T23:58:31.069Z,45.20
